Terminal Aerodrome Forecast
Issued by NWS Sterling, VA

Current Version | Previous Version | Text Only | Print | Product List | Glossary Off
Versions: 1 2 3 4 5 6 7 8 9 10 11 12 13 14 15 16 17 18 19

000
FTUS41 KLWX 191737
TAFMRB
TAF
KMRB 191737Z 1918/2018 13012KT P6SM BKN250
     FM192100 12013KT P6SM -RA OVC060
     FM200100 09011KT P6SM RA OVC010
     FM200400 06014KT 3SM +RA OVC008 WS020/12040KT
     FM200700 09014KT 3SM RA OVC008 WS020/13040KT
     FM201000 17008KT 3SM -RA OVC008
     FM201200 23005KT P6SM OVC012
     FM201600 20008KT P6SM BKN050=

USA.gov is the U.S. government's official web portal to all federal, state and local government web resources and services.